Sea Voyager — V7QU2 — position and weather

sailwx.info

Track history (hours):
 
Tides and Currents Weather Stations Pressure Air Temp Water Temp Dewpoint Dewpoint Depression Visibility Wind Speed Wind Dir Waves Ship Positions

Sea Voyager

Last reported at 2016-Aug-15 04:33 UTC. Time now 2016-Aug-31 16:07 UTC.
Position N 31°02' W 117°31'.
Warning: this ship's position is 16 days out of date.

Length 243 m; draft 8.6 m.

Type: Tanker. MMSI: 538003439.

Date/timePositionNaut miles runAvg speedWind from/ knotsBaromVisibWave heightAir tempDewpointWater temp
2016-Aug-15 04:33N 31°02' W 117°31'1212.5
2016-Aug-15 03:33N 31°15' W 117°33'1612.5
2016-Aug-15 02:18N 31°30' W 117°36'1512.5
2016-Aug-15 01:07N 31°45' W 117°39'712.4
2016-Aug-15 00:33N 31°52' W 117°40'1312.6
2016-Aug-14 23:33N 32°04' W 117°42'1312.5
2016-Aug-14 22:33N 32°17' W 117°44'1212.4
2016-Aug-14 21:33N 32°29' W 117°47'1212.3
2016-Aug-14 20:33N 32°41' W 117°50'1212.4
2016-Aug-14 19:33N 32°52' W 117°55'1212.4
2016-Aug-14 18:33N 33°04' W 117°60'1212.0
2016-Aug-14 17:33N 33°15' W 118°05'1212.0
2016-Aug-14 16:33N 33°27' W 118°10'1111.4
2016-Aug-14 15:33N 33°38' W 118°13'6 5.9
2016-Aug-14 14:33N 33°44' W 118°14'0 0.2
2016-Aug-14 13:30N 33°44' W 118°14'0 0.0
2016-Aug-14 12:33N 33°44' W 118°14'0 0.0
2016-Aug-14 11:33N 33°44' W 118°14'0 0.0
2016-Aug-14 10:33N 33°44' W 118°14'0 0.1
2016-Aug-14 09:33N 33°44' W 118°13'0 0.0
2016-Aug-14 08:33N 33°44' W 118°13'0 0.0
2016-Aug-14 07:33N 33°44' W 118°13'0 0.0
2016-Aug-14 06:33N 33°44' W 118°13'0 0.0
2016-Aug-14 04:30N 33°44' W 118°13'0 0.0
2016-Aug-14 03:33N 33°44' W 118°13'0 0.0
2016-Aug-14 02:33N 33°44' W 118°13'0 0.0
2016-Aug-14 01:30N 33°44' W 118°13'0 0.0
2016-Aug-14 00:33N 33°44' W 118°13'0 0.0
2016-Aug-13 23:33N 33°44' W 118°13'0 0.0
2016-Aug-13 22:33N 33°44' W 118°13'0 0.0
2016-Aug-13 21:33N 33°44' W 118°13'0 0.1
2016-Aug-13 20:33N 33°44' W 118°14'0 0.1
2016-Aug-13 19:33N 33°44' W 118°13'0 0.1
2016-Aug-13 18:34N 33°44' W 118°14'0 0.0
2016-Aug-13 17:34N 33°44' W 118°14'0 0.1
2016-Aug-13 16:34N 33°44' W 118°13'0 0.1
2016-Aug-13 15:34N 33°44' W 118°14'0 0.0
2016-Aug-13 14:33N 33°44' W 118°14'0 0.0
2016-Aug-13 13:34N 33°44' W 118°14'0 0.0
2016-Aug-13 12:34N 33°44' W 118°14'0 0.0
2016-Aug-13 11:33N 33°44' W 118°14'0 0.0
2016-Aug-13 10:34N 33°44' W 118°14'0 0.1
2016-Aug-13 09:33N 33°44' W 118°14'0 0.1
2016-Aug-13 08:34N 33°44' W 118°14'4 4.1
2016-Aug-13 07:33N 33°40' W 118°12'7 7.5
2016-Aug-13 06:34N 33°36' W 118°19'1111.4
2016-Aug-13 05:34N 33°41' W 118°32'1111.3
2016-Aug-13 04:33N 33°52' W 118°30'3 2.7
2016-Aug-13 03:27N 33°54' W 118°27'0 0.0
2016-Aug-12 06:17N 33°54' W 118°27'0 0.0
2016-Aug-11 19:22N 33°54' W 118°27'1 0.6
2016-Aug-11 18:30N 33°54' W 118°27'2 0.4
2016-Aug-11 14:18N 33°54' W 118°29'0 0.0
2016-Aug-11 13:15N 33°54' W 118°29'0 0.0
2016-Aug-11 11:24N 33°54' W 118°29'0 0.0
2016-Aug-11 09:12N 33°54' W 118°29'0 0.0
2016-Aug-11 08:33N 33°54' W 118°29'0 0.1
2016-Aug-11 07:30N 33°54' W 118°29'0 0.0
2016-Aug-11 06:24N 33°54' W 118°29'0 0.0
2016-Aug-11 03:30N 33°54' W 118°29'0 0.0
2016-Aug-11 02:24N 33°54' W 118°29'0 0.1
2016-Aug-11 00:30N 33°54' W 118°29'0 0.0
2016-Aug-10 23:21N 33°54' W 118°29'0 0.0
2016-Aug-10 21:27N 33°54' W 118°29'0 0.0
2016-Aug-10 15:18N 33°54' W 118°29'0 0.0
2016-Aug-10 10:30N 33°54' W 118°29'0 0.0
2016-Aug-10 09:27N 33°54' W 118°29'0 0.0
2016-Aug-10 08:30N 33°54' W 118°29'0 0.1
2016-Aug-10 07:30N 33°54' W 118°29'0 0.0
2016-Aug-10 06:21N 33°54' W 118°29'0 0.0
2016-Aug-10 05:33N 33°54' W 118°29'0 0.0
2016-Aug-10 02:15N 33°54' W 118°29'0 0.1
2016-Aug-10 01:21N 33°54' W 118°29'0 0.1
2016-Aug-10 00:33N 33°54' W 118°29'0 0.0
2016-Aug-09 23:33N 33°54' W 118°29'0 0.0
2016-Aug-09 22:15N 33°54' W 118°29'0 0.0
2016-Aug-09 21:33N 33°54' W 118°29'0 0.0
2016-Aug-09 17:33N 33°54' W 118°29'0 0.0
2016-Aug-09 16:21N 33°54' W 118°29'0 0.1
2016-Aug-09 15:33N 33°54' W 118°29'0 0.1
2016-Aug-09 14:27N 33°54' W 118°29'0 0.0
2016-Aug-09 13:21N 33°54' W 118°29'0 0.1
2016-Aug-09 11:21N 33°54' W 118°29'0 0.0
2016-Aug-09 10:30N 33°54' W 118°29'0 0.0
2016-Aug-09 09:33N 33°54' W 118°29'0 0.0
2016-Aug-09 08:21N 33°54' W 118°29'0 0.0
2016-Aug-09 07:33N 33°54' W 118°29'0 0.0
2016-Aug-09 05:33N 33°54' W 118°29'0 0.0
2016-Aug-09 04:09N 33°54' W 118°29'0 0.0
2016-Aug-09 02:21N 33°54' W 118°29'0 0.0
2016-Aug-08 23:33N 33°54' W 118°29'0 0.0
2016-Aug-08 22:30N 33°54' W 118°29'0 0.0
2016-Aug-08 21:12N 33°54' W 118°29'0 0.0
2016-Aug-08 14:33N 33°54' W 118°29'0 0.1
2016-Aug-08 13:09N 33°54' W 118°29'0 0.0
2016-Aug-08 12:30N 33°54' W 118°29'0 0.0
2016-Aug-08 10:33N 33°54' W 118°29'0 0.0
2016-Aug-08 09:33N 33°54' W 118°29'0 0.0
2016-Aug-08 08:33N 33°54' W 118°29'0 0.0
2016-Aug-08 07:12N 33°54' W 118°29'0 0.0
2016-Aug-08 06:33N 33°54' W 118°29'0 0.1
2016-Aug-08 05:33N 33°54' W 118°29'0 0.0
2016-Aug-08 02:09N 33°54' W 118°29'0 0.0
2016-Aug-08 00:18N 33°54' W 118°29'0 0.1
2016-Aug-07 23:33N 33°54' W 118°29'0 0.1
2016-Aug-07 22:30N 33°54' W 118°29'0 0.0
2016-Aug-07 21:33N 33°54' W 118°29'0 0.0
2016-Aug-07 20:15N 33°54' W 118°29'0 0.0
2016-Aug-07 18:33N 33°54' W 118°29'0 0.3
2016-Aug-07 17:30N 33°54' W 118°29'0 0.1
2016-Aug-07 16:16N 33°54' W 118°29'0 0.0
2016-Aug-07 14:33N 33°54' W 118°29'0 0.0
2016-Aug-07 13:27N 33°54' W 118°29'0 0.1
2016-Aug-07 10:27N 33°54' W 118°29'0 0.0
2016-Aug-07 09:30N 33°54' W 118°29'0 0.0
2016-Aug-07 08:33N 33°54' W 118°29'0 0.0
2016-Aug-07 07:33N 33°54' W 118°29'0 0.0
2016-Aug-07 06:27N 33°54' W 118°29'0 0.0
2016-Aug-07 04:30N 33°54' W 118°29'0 0.1
2016-Aug-07 03:33N 33°54' W 118°29'0 0.0
2016-Aug-06 22:12N 33°54' W 118°29'0 0.0
2016-Aug-06 20:09N 33°54' W 118°29'4 4.2
2016-Aug-06 19:09N 33°50' W 118°31'5 9.1
2016-Aug-06 18:33N 33°45' W 118°31'1211.2
2016-Aug-06 17:27N 33°38' W 118°18'910.1
2016-Aug-06 16:33N 33°34' W 118°09'1211.9
2016-Aug-06 15:34N 33°22' W 118°04'1211.6
2016-Aug-06 14:34N 33°11' W 118°01'1211.9
2016-Aug-06 13:34N 32°60' W 118°06'1212.3
2016-Aug-06 12:33N 32°48' W 118°10'1312.5
2016-Aug-06 11:34N 32°36' W 118°15'1312.5
2016-Aug-06 10:33N 32°24' W 118°20'1312.5
2016-Aug-06 09:32N 32°12' W 118°23'1212.3
2016-Aug-06 08:33N 31°60' W 118°25'1212.3
2016-Aug-06 07:33N 31°48' W 118°28'3310.9
2016-Aug-06 04:34N 31°16' W 118°36'1211.8
2016-Aug-06 03:32N 31°04' W 118°39'1311.5
2016-Aug-06 02:22N 30°51' W 118°42'911.0
2016-Aug-06 01:34N 30°42' W 118°44'3311.1
2016-Aug-05 22:34N 30°10' W 118°52'2411.8
2016-Aug-05 20:32N 29°46' W 118°58'  
Track history (hours):
 
Tides and Currents Weather Stations Pressure Air Temp Water Temp Dewpoint Dewpoint Depression Visibility Wind Speed Wind Dir Waves Ship Positions

Sea Voyager

Last reported at 2016-Aug-15 04:33 UTC. Time now 2016-Aug-31 16:07 UTC.
Position N 31°02' W 117°31'.
Warning: this ship's position is 16 days out of date.

Length 243 m; draft 8.6 m.

Type: Tanker. MMSI: 538003439.

Date/timePositionNaut miles runAvg speedWind from/ knotsBaromVisibWave heightAir tempDewpointWater temp
2016-Aug-15 04:33N 31°02' W 117°31'1212.5
2016-Aug-15 03:33N 31°15' W 117°33'1612.5
2016-Aug-15 02:18N 31°30' W 117°36'1512.5
2016-Aug-15 01:07N 31°45' W 117°39'712.4
2016-Aug-15 00:33N 31°52' W 117°40'1312.6
2016-Aug-14 23:33N 32°04' W 117°42'1312.5
2016-Aug-14 22:33N 32°17' W 117°44'1212.4
2016-Aug-14 21:33N 32°29' W 117°47'1212.3
2016-Aug-14 20:33N 32°41' W 117°50'1212.4
2016-Aug-14 19:33N 32°52' W 117°55'1212.4
2016-Aug-14 18:33N 33°04' W 117°60'1212.0
2016-Aug-14 17:33N 33°15' W 118°05'1212.0
2016-Aug-14 16:33N 33°27' W 118°10'1111.4
2016-Aug-14 15:33N 33°38' W 118°13'6 5.9
2016-Aug-14 14:33N 33°44' W 118°14'0 0.2
2016-Aug-14 13:30N 33°44' W 118°14'0 0.0
2016-Aug-14 12:33N 33°44' W 118°14'0 0.0
2016-Aug-14 11:33N 33°44' W 118°14'0 0.0
2016-Aug-14 10:33N 33°44' W 118°14'0 0.1
2016-Aug-14 09:33N 33°44' W 118°13'0 0.0
2016-Aug-14 08:33N 33°44' W 118°13'0 0.0
2016-Aug-14 07:33N 33°44' W 118°13'0 0.0
2016-Aug-14 06:33N 33°44' W 118°13'0 0.0
2016-Aug-14 04:30N 33°44' W 118°13'0 0.0
2016-Aug-14 03:33N 33°44' W 118°13'0 0.0
2016-Aug-14 02:33N 33°44' W 118°13'0 0.0
2016-Aug-14 01:30N 33°44' W 118°13'0 0.0
2016-Aug-14 00:33N 33°44' W 118°13'0 0.0
2016-Aug-13 23:33N 33°44' W 118°13'0 0.0
2016-Aug-13 22:33N 33°44' W 118°13'0 0.0
2016-Aug-13 21:33N 33°44' W 118°13'0 0.1
2016-Aug-13 20:33N 33°44' W 118°14'0 0.1
2016-Aug-13 19:33N 33°44' W 118°13'0 0.1
2016-Aug-13 18:34N 33°44' W 118°14'0 0.0
2016-Aug-13 17:34N 33°44' W 118°14'0 0.1
2016-Aug-13 16:34N 33°44' W 118°13'0 0.1
2016-Aug-13 15:34N 33°44' W 118°14'0 0.0
2016-Aug-13 14:33N 33°44' W 118°14'0 0.0
2016-Aug-13 13:34N 33°44' W 118°14'0 0.0
2016-Aug-13 12:34N 33°44' W 118°14'0 0.0
2016-Aug-13 11:33N 33°44' W 118°14'0 0.0
2016-Aug-13 10:34N 33°44' W 118°14'0 0.1
2016-Aug-13 09:33N 33°44' W 118°14'0 0.1
2016-Aug-13 08:34N 33°44' W 118°14'4 4.1
2016-Aug-13 07:33N 33°40' W 118°12'7 7.5
2016-Aug-13 06:34N 33°36' W 118°19'1111.4
2016-Aug-13 05:34N 33°41' W 118°32'1111.3
2016-Aug-13 04:33N 33°52' W 118°30'3 2.7
2016-Aug-13 03:27N 33°54' W 118°27'0 0.0
2016-Aug-12 06:17N 33°54' W 118°27'0 0.0
2016-Aug-11 19:22N 33°54' W 118°27'1 0.6
2016-Aug-11 18:30N 33°54' W 118°27'2 0.4
2016-Aug-11 14:18N 33°54' W 118°29'0 0.0
2016-Aug-11 13:15N 33°54' W 118°29'0 0.0
2016-Aug-11 11:24N 33°54' W 118°29'0 0.0
2016-Aug-11 09:12N 33°54' W 118°29'0 0.0
2016-Aug-11 08:33N 33°54' W 118°29'0 0.1
2016-Aug-11 07:30N 33°54' W 118°29'0 0.0
2016-Aug-11 06:24N 33°54' W 118°29'0 0.0
2016-Aug-11 03:30N 33°54' W 118°29'0 0.0
2016-Aug-11 02:24N 33°54' W 118°29'0 0.1
2016-Aug-11 00:30N 33°54' W 118°29'0 0.0
2016-Aug-10 23:21N 33°54' W 118°29'0 0.0
2016-Aug-10 21:27N 33°54' W 118°29'0 0.0
2016-Aug-10 15:18N 33°54' W 118°29'0 0.0
2016-Aug-10 10:30N 33°54' W 118°29'0 0.0
2016-Aug-10 09:27N 33°54' W 118°29'0 0.0
2016-Aug-10 08:30N 33°54' W 118°29'0 0.1
2016-Aug-10 07:30N 33°54' W 118°29'0 0.0
2016-Aug-10 06:21N 33°54' W 118°29'0 0.0
2016-Aug-10 05:33N 33°54' W 118°29'0 0.0
2016-Aug-10 02:15N 33°54' W 118°29'0 0.1
2016-Aug-10 01:21N 33°54' W 118°29'0 0.1
2016-Aug-10 00:33N 33°54' W 118°29'0 0.0
2016-Aug-09 23:33N 33°54' W 118°29'0 0.0
2016-Aug-09 22:15N 33°54' W 118°29'0 0.0
2016-Aug-09 21:33N 33°54' W 118°29'0 0.0
2016-Aug-09 17:33N 33°54' W 118°29'0 0.0
2016-Aug-09 16:21N 33°54' W 118°29'0 0.1
2016-Aug-09 15:33N 33°54' W 118°29'0 0.1
2016-Aug-09 14:27N 33°54' W 118°29'0 0.0
2016-Aug-09 13:21N 33°54' W 118°29'0 0.1
2016-Aug-09 11:21N 33°54' W 118°29'0 0.0
2016-Aug-09 10:30N 33°54' W 118°29'0 0.0
2016-Aug-09 09:33N 33°54' W 118°29'0 0.0
2016-Aug-09 08:21N 33°54' W 118°29'0 0.0
2016-Aug-09 07:33N 33°54' W 118°29'0 0.0
2016-Aug-09 05:33N 33°54' W 118°29'0 0.0
2016-Aug-09 04:09N 33°54' W 118°29'0 0.0
2016-Aug-09 02:21N 33°54' W 118°29'0 0.0
2016-Aug-08 23:33N 33°54' W 118°29'0 0.0
2016-Aug-08 22:30N 33°54' W 118°29'0 0.0
2016-Aug-08 21:12N 33°54' W 118°29'0 0.0
2016-Aug-08 14:33N 33°54' W 118°29'0 0.1
2016-Aug-08 13:09N 33°54' W 118°29'0 0.0
2016-Aug-08 12:30N 33°54' W 118°29'0 0.0
2016-Aug-08 10:33N 33°54' W 118°29'0 0.0
2016-Aug-08 09:33N 33°54' W 118°29'0 0.0
2016-Aug-08 08:33N 33°54' W 118°29'0 0.0
2016-Aug-08 07:12N 33°54' W 118°29'0 0.0
2016-Aug-08 06:33N 33°54' W 118°29'0 0.1
2016-Aug-08 05:33N 33°54' W 118°29'0 0.0
2016-Aug-08 02:09N 33°54' W 118°29'0 0.0
2016-Aug-08 00:18N 33°54' W 118°29'0 0.1
2016-Aug-07 23:33N 33°54' W 118°29'0 0.1
2016-Aug-07 22:30N 33°54' W 118°29'0 0.0
2016-Aug-07 21:33N 33°54' W 118°29'0 0.0
2016-Aug-07 20:15N 33°54' W 118°29'0 0.0
2016-Aug-07 18:33N 33°54' W 118°29'0 0.3
2016-Aug-07 17:30N 33°54' W 118°29'0 0.1
2016-Aug-07 16:16N 33°54' W 118°29'0 0.0
2016-Aug-07 14:33N 33°54' W 118°29'0 0.0
2016-Aug-07 13:27N 33°54' W 118°29'0 0.1
2016-Aug-07 10:27N 33°54' W 118°29'0 0.0
2016-Aug-07 09:30N 33°54' W 118°29'0 0.0
2016-Aug-07 08:33N 33°54' W 118°29'0 0.0
2016-Aug-07 07:33N 33°54' W 118°29'0 0.0
2016-Aug-07 06:27N 33°54' W 118°29'0 0.0
2016-Aug-07 04:30N 33°54' W 118°29'0 0.1
2016-Aug-07 03:33N 33°54' W 118°29'0 0.0
2016-Aug-06 22:12N 33°54' W 118°29'0 0.0
2016-Aug-06 20:09N 33°54' W 118°29'4 4.2
2016-Aug-06 19:09N 33°50' W 118°31'5 9.1
2016-Aug-06 18:33N 33°45' W 118°31'1211.2
2016-Aug-06 17:27N 33°38' W 118°18'910.1
2016-Aug-06 16:33N 33°34' W 118°09'1211.9
2016-Aug-06 15:34N 33°22' W 118°04'1211.6
2016-Aug-06 14:34N 33°11' W 118°01'1211.9
2016-Aug-06 13:34N 32°60' W 118°06'1212.3
2016-Aug-06 12:33N 32°48' W 118°10'1312.5
2016-Aug-06 11:34N 32°36' W 118°15'1312.5
2016-Aug-06 10:33N 32°24' W 118°20'1312.5
2016-Aug-06 09:32N 32°12' W 118°23'1212.3
2016-Aug-06 08:33N 31°60' W 118°25'1212.3
2016-Aug-06 07:33N 31°48' W 118°28'3310.9
2016-Aug-06 04:34N 31°16' W 118°36'1211.8
2016-Aug-06 03:32N 31°04' W 118°39'1311.5
2016-Aug-06 02:22N 30°51' W 118°42'911.0
2016-Aug-06 01:34N 30°42' W 118°44'3311.1
2016-Aug-05 22:34N 30°10' W 118°52'2411.8
2016-Aug-05 20:32N 29°46' W 118°58'  

Dump ship's entire track history